Time;durP1;ratioP1;P1;durP2;ratioP2;P2;SDS_P1;SDS_P2;PMS_P1;PMS_P2;Temp;Humidity;BMP_temperature;BMP_pressure;BME280_temperature;BME280_humidity;BME280_pressure;Samples;Min_cycle;Max_cycle;Signal;HPM_P1;HPM_P2
2023/02/16 00:01:29;;;;;;;4.10;2.10;;;;;;;5.14;45.92;101756.29;107972;1288;21983;-64
2023/02/16 00:03:55;;;;;;;6.50;2.60;;;;;;;5.13;46.04;101750.15;108068;1288;22001;-63
2023/02/16 00:06:24;;;;;;;5.70;2.70;;;;;;;5.10;45.90;101745.21;108199;1288;22099;-65
2023/02/16 00:08:51;;;;;;;6.50;2.80;;;;;;;5.12;46.08;101749.08;108176;1288;21998;-64
2023/02/16 00:14:11;;;;;;;5.20;2.20;;;;;;;5.23;46.16;101747.51;108140;1288;22105;-64
2023/02/16 00:16:38;;;;;;;4.90;2.10;;;;;;;5.29;46.11;101748.58;108172;1288;21994;-65
2023/02/16 00:19:33;;;;;;;6.20;2.50;;;;;;;5.34;46.04;101748.91;108175;1287;22006;-61
2023/02/16 00:21:59;;;;;;;5.20;2.40;;;;;;;5.39;46.21;101751.50;108306;1286;22787;-64
2023/02/16 00:24:25;;;;;;;5.30;2.40;;;;;;;5.41;46.29;101746.86;108243;1286;22026;-64
2023/02/16 00:26:52;;;;;;;6.70;2.70;;;;;;;5.43;46.00;101740.81;108148;1286;22023;-61
2023/02/16 00:29:23;;;;;;;6.00;2.70;;;;;;;5.39;46.27;101733.55;108169;1286;21999;-63
2023/02/16 00:31:49;;;;;;;6.60;2.70;;;;;;;5.30;46.27;101736.43;108082;1288;21995;-65
2023/02/16 00:34:30;;;;;;;4.80;2.30;;;;;;;5.24;46.21;101736.95;107430;1288;1002740;-61
2023/02/16 00:37:00;;;;;;;5.10;2.60;;;;;;;5.19;46.34;101739.91;108124;1287;21991;-61
2023/02/16 00:39:26;;;;;;;6.00;2.70;;;;;;;5.19;46.36;101738.88;108175;1286;21995;-60
2023/02/16 00:41:58;;;;;;;4.70;2.30;;;;;;;5.22;46.32;101740.36;108135;1286;22014;-61
2023/02/16 00:44:40;;;;;;;5.50;2.40;;;;;;;5.27;46.25;101742.09;108191;1286;22102;-61
2023/02/16 00:47:34;;;;;;;6.00;2.80;;;;;;;5.31;46.19;101740.44;108139;1286;22003;-64
2023/02/16 00:49:59;;;;;;;7.40;3.10;;;;;;;5.31;46.04;101742.21;107431;1286;1002531;-61
2023/02/16 00:52:34;;;;;;;7.00;3.00;;;;;;;5.33;45.91;101741.74;108174;1286;21989;-65
2023/02/16 00:55:01;;;;;;;7.40;3.00;;;;;;;5.32;45.91;101736.33;108221;1286;21997;-64
2023/02/16 00:57:29;;;;;;;7.00;2.80;;;;;;;5.34;46.01;101732.37;108146;1286;21978;-61
2023/02/16 00:59:59;;;;;;;4.30;1.90;;;;;;;5.37;45.93;101730.73;108020;1286;21989;-64
2023/02/16 01:02:25;;;;;;;6.10;2.50;;;;;;;5.42;45.73;101730.69;108172;1286;21986;-65
2023/02/16 01:04:53;;;;;;;6.10;2.90;;;;;;;5.45;46.00;101734.80;107395;1286;1002244;-61
2023/02/16 01:12:48;;;;;;;6.50;2.40;;;;;;;5.43;45.66;101729.50;108079;1283;22380;-65
2023/02/16 01:15:24;;;;;;;5.40;2.90;;;;;;;5.41;45.45;101729.96;108087;1286;21998;-65
2023/02/16 01:17:50;;;;;;;5.10;2.40;;;;;;;5.41;45.65;101723.52;108069;1283;21986;-65
2023/02/16 01:20:18;;;;;;;6.30;2.30;;;;;;;5.40;45.74;101723.48;108098;1284;22261;-61
2023/02/16 01:22:43;;;;;;;6.50;2.40;;;;;;;5.40;45.58;101729.58;107380;1283;1002413;-65
2023/02/16 01:25:09;;;;;;;5.80;2.40;;;;;;;5.37;45.56;101730.89;108043;1275;21991;-64
2023/02/16 01:27:36;;;;;;;4.80;2.00;;;;;;;5.32;45.61;101730.39;108068;1286;22171;-62
2023/02/16 01:30:05;;;;;;;6.20;2.30;;;;;;;5.28;45.42;101733.23;108086;1286;22045;-64
2023/02/16 01:32:32;;;;;;;4.00;1.90;;;;;;;5.24;45.54;101730.67;108030;1286;22027;-65
2023/02/16 01:34:58;;;;;;;3.50;1.80;;;;;;;5.26;45.74;101723.95;108049;1286;21997;-65
2023/02/16 01:37:24;;;;;;;4.70;2.30;;;;;;;5.24;45.73;101719.35;108097;1286;22225;-65
2023/02/16 01:39:50;;;;;;;4.80;2.30;;;;;;;5.28;45.42;101720.00;107357;1286;1002760;-64
2023/02/16 01:42:43;;;;;;;3.50;1.80;;;;;;;5.32;45.36;101719.95;108078;1286;21992;-61
2023/02/16 01:45:12;;;;;;;4.50;1.90;;;;;;;5.39;45.46;101718.92;108257;1286;22068;-61
2023/02/16 01:47:44;;;;;;;6.30;2.30;;;;;;;5.43;45.38;101720.98;108093;1286;21990;-61
2023/02/16 01:50:20;;;;;;;5.80;2.60;;;;;;;5.48;45.30;101718.70;108062;1286;22044;-65
2023/02/16 01:52:50;;;;;;;5.50;2.00;;;;;;;5.52;45.44;101717.94;108106;1286;21994;-65
2023/02/16 01:55:36;;;;;;;5.50;2.40;;;;;;;5.56;45.42;101722.05;108069;1286;21989;-65
2023/02/16 01:58:32;;;;;;;5.30;1.90;;;;;;;5.58;45.39;101720.71;108124;1286;21997;-65
2023/02/16 02:01:03;;;;;;;5.90;2.50;;;;;;;5.61;45.28;101720.11;108105;1286;21995;-65
2023/02/16 02:06:19;;;;;;;5.50;2.20;;;;;;;5.66;45.36;101719.77;108074;1283;22024;-65
2023/02/16 02:09:11;;;;;;;5.70;2.90;;;;;;;5.72;45.44;101719.23;108295;1286;22015;-65
2023/02/16 02:11:45;;;;;;;5.20;2.50;;;;;;;5.78;45.49;101717.66;108112;1286;22010;-65
2023/02/16 02:14:25;;;;;;;4.90;2.30;;;;;;;5.83;45.45;101718.67;108058;1286;22032;-60
2023/02/16 02:16:58;;;;;;;7.10;3.20;;;;;;;5.87;45.52;101717.41;108059;1286;21994;-61
2023/02/16 02:19:23;;;;;;;5.40;2.50;;;;;;;5.91;45.25;101718.38;108122;1286;24479;-64
2023/02/16 02:24:59;;;;;;;5.40;2.20;;;;;;;5.95;45.11;101726.85;108068;1286;22007;-61
2023/02/16 02:27:33;;;;;;;5.60;2.30;;;;;;;5.98;45.42;101730.23;108102;1274;21999;-65
2023/02/16 02:30:36;;;;;;;5.50;2.10;;;;;;;6.01;45.57;101730.00;108112;1286;22031;-64
2023/02/16 02:33:27;;;;;;;5.50;2.10;;;;;;;6.02;45.45;101733.17;108078;1286;22030;-65
2023/02/16 02:35:56;;;;;;;5.00;2.20;;;;;;;6.02;45.59;101739.80;108053;1274;21998;-65
2023/02/16 02:38:57;;;;;;;4.60;2.10;;;;;;;6.04;45.51;101740.88;108245;1286;21989;-60
2023/02/16 02:44:22;;;;;;;5.40;2.10;;;;;;;6.06;45.46;101741.30;108253;1286;21989;-61
2023/02/16 02:46:51;;;;;;;5.20;2.50;;;;;;;6.06;45.56;101744.61;107425;1287;1003125;-61
2023/02/16 02:49:17;;;;;;;6.90;2.70;;;;;;;6.08;45.64;101748.35;107382;1287;1002324;-65
2023/02/16 02:51:43;;;;;;;6.70;2.60;;;;;;;6.09;45.46;101751.33;107376;1286;1002902;-64
2023/02/16 03:02:58;;;;;;;5.80;2.20;;;;;;;6.10;45.53;101751.00;107366;1287;1002760;-65
2023/02/16 03:05:27;;;;;;;6.00;2.00;;;;;;;6.08;45.57;101751.81;107388;1286;1003474;-65
2023/02/16 03:08:13;;;;;;;5.70;2.80;;;;;;;6.07;45.45;101750.21;108130;1286;22022;-65
2023/02/16 03:13:33;;;;;;;4.40;2.20;;;;;;;6.12;45.56;101752.98;108066;1286;21996;-61
2023/02/16 03:16:02;;;;;;;5.90;2.40;;;;;;;6.15;45.67;101756.54;108039;1288;22083;-66
2023/02/16 03:29:28;;;;;;;6.60;2.70;;;;;;;6.11;45.45;101753.66;108007;1286;22073;-66
2023/02/16 03:31:54;;;;;;;5.60;2.00;;;;;;;6.06;45.77;101753.16;108154;1286;22069;-66
2023/02/16 03:34:20;;;;;;;5.20;2.40;;;;;;;6.03;45.90;101749.91;108038;1288;22073;-65
2023/02/16 03:36:49;;;;;;;6.30;2.40;;;;;;;6.03;45.75;101747.65;108178;1288;22019;-63
2023/02/16 03:39:17;;;;;;;6.80;2.80;;;;;;;6.02;45.65;101751.31;108067;1288;22027;-62
2023/02/16 03:41:49;;;;;;;5.80;2.00;;;;;;;6.03;45.82;101746.62;107178;1288;1002510;-63
2023/02/16 03:44:14;;;;;;;5.20;2.40;;;;;;;6.03;46.13;101747.30;108108;1286;22429;-62
2023/02/16 03:46:40;;;;;;;5.60;2.20;;;;;;;6.02;45.80;101746.92;108142;1284;21998;-62
2023/02/16 03:49:06;;;;;;;6.80;2.60;;;;;;;6.02;45.69;101747.61;108101;1287;22029;-62
2023/02/16 03:51:32;;;;;;;6.40;2.60;;;;;;;6.01;45.80;101745.51;108122;1287;21989;-66
2023/02/16 03:53:58;;;;;;;5.20;2.30;;;;;;;5.99;45.98;101747.02;108127;1286;21997;-62
2023/02/16 03:56:24;;;;;;;6.30;2.70;;;;;;;5.99;45.86;101750.48;107363;1279;1002358;-62
2023/02/16 03:58:50;;;;;;;6.60;3.10;;;;;;;5.99;45.84;101755.01;108122;1286;22000;-62
2023/02/16 04:01:16;;;;;;;5.70;2.50;;;;;;;5.99;46.09;101756.76;108167;1277;22033;-62
2023/02/16 04:03:43;;;;;;;5.60;2.50;;;;;;;6.01;46.04;101754.92;108117;1286;22037;-62
2023/02/16 04:06:09;;;;;;;4.60;2.20;;;;;;;6.03;46.09;101753.41;108105;1286;21998;-62
2023/02/16 04:08:37;;;;;;;5.90;2.50;;;;;;;6.05;45.84;101757.83;107336;1286;1002536;-66
2023/02/16 04:12:35;;;;;;;7.40;2.60;;;;;;;6.07;45.96;101760.84;108131;1286;22016;-66
2023/02/16 04:13:50;;;;;;;5.20;2.60;;;;;;;6.10;46.04;101757.45;108085;1286;21996;-66
2023/02/16 04:16:16;;;;;;;5.30;2.60;;;;;;;6.13;46.15;101757.86;108065;1286;22012;-66
2023/02/16 04:18:42;;;;;;;5.60;2.30;;;;;;;6.17;46.30;101759.04;108125;1286;22079;-62
2023/02/16 04:21:07;;;;;;;5.40;2.20;;;;;;;6.22;46.14;101751.34;108069;1280;22026;-64
2023/02/16 04:23:33;;;;;;;4.50;2.20;;;;;;;6.26;46.12;101749.53;108195;1286;21989;-64
2023/02/16 04:25:59;;;;;;;6.40;2.30;;;;;;;6.26;45.73;101749.70;108125;1286;21995;-65
2023/02/16 04:28:24;;;;;;;5.80;2.40;;;;;;;6.23;45.62;101748.20;108121;1285;22008;-65
2023/02/16 04:30:51;;;;;;;5.30;2.20;;;;;;;6.17;45.79;101747.37;108198;1286;22010;-66
2023/02/16 04:33:17;;;;;;;4.80;2.50;;;;;;;6.14;45.96;101747.98;108217;1286;21996;-62
2023/02/16 04:35:42;;;;;;;10.90;2.60;;;;;;;6.11;45.88;101747.19;108088;1286;21995;-64
2023/02/16 04:38:11;;;;;;;5.20;2.60;;;;;;;6.07;45.94;101745.01;108050;1286;21987;-66
2023/02/16 04:40:39;;;;;;;5.20;2.50;;;;;;;6.04;46.11;101741.96;108122;1286;21992;-64
2023/02/16 04:43:04;;;;;;;9.10;2.70;;;;;;;6.08;46.41;101739.61;107335;1286;1002574;-64
2023/02/16 04:45:31;;;;;;;21.40;3.60;;;;;;;6.14;46.46;101738.40;108086;1286;22377;-64
2023/02/16 04:47:57;;;;;;;6.80;2.60;;;;;;;6.18;46.30;101739.02;107333;1286;1002943;-64
2023/02/16 04:50:22;;;;;;;5.40;2.40;;;;;;;6.18;45.96;101738.48;107313;1286;1002598;-65
2023/02/16 04:52:49;;;;;;;4.80;2.30;;;;;;;6.15;45.98;101738.25;107319;1284;1002595;-64
2023/02/16 04:55:15;;;;;;;14.50;2.50;;;;;;;6.14;46.01;101734.73;107341;1285;1002954;-66
2023/02/16 04:57:41;;;;;;;5.20;2.50;;;;;;;6.16;46.20;101735.13;108157;1286;22016;-66
2023/02/16 05:00:08;;;;;;;8.70;3.70;;;;;;;6.19;46.25;101739.39;108087;1286;21986;-65
2023/02/16 05:02:33;;;;;;;8.20;3.40;;;;;;;6.20;45.97;101739.78;108087;1286;21991;-65
2023/02/16 05:05:00;;;;;;;4.90;2.80;;;;;;;6.22;46.10;101738.78;108053;1284;21996;-65
2023/02/16 05:07:26;;;;;;;6.20;2.60;;;;;;;6.22;46.11;101738.96;108064;1286;23828;-64
2023/02/16 05:09:52;;;;;;;11.20;5.40;;;;;;;6.23;46.18;101739.33;108174;1283;22021;-64
2023/02/16 05:15:04;;;;;;;12.50;5.30;;;;;;;6.25;46.13;101737.83;108152;1286;21992;-64
2023/02/16 05:17:29;;;;;;;7.30;3.30;;;;;;;6.26;46.29;101735.74;108258;1286;22042;-64
2023/02/16 05:19:59;;;;;;;9.40;3.50;;;;;;;6.24;46.41;101736.40;108131;1286;22099;-64
2023/02/16 05:22:27;;;;;;;14.20;3.00;;;;;;;6.24;46.17;101735.36;108098;1286;22152;-65
2023/02/16 05:24:53;;;;;;;7.50;2.80;;;;;;;6.25;46.45;101734.85;107363;1286;1003063;-66
2023/02/16 05:27:24;;;;;;;8.30;2.80;;;;;;;6.27;46.48;101739.07;108087;1288;21990;-67
2023/02/16 05:29:50;;;;;;;8.40;2.80;;;;;;;6.28;46.35;101742.77;108051;1288;21995;-65
2023/02/16 05:32:16;;;;;;;7.20;2.80;;;;;;;6.31;46.40;101740.23;108108;1288;21993;-65
2023/02/16 05:34:43;;;;;;;5.20;2.40;;;;;;;6.37;46.51;101743.56;108051;1288;22006;-65
2023/02/16 05:37:09;;;;;;;5.80;2.90;;;;;;;6.45;46.50;101746.02;108049;1288;22461;-65
2023/02/16 05:39:36;;;;;;;6.80;2.60;;;;;;;6.51;46.63;101742.86;108121;1288;21982;-65
2023/02/16 05:42:02;;;;;;;5.80;2.80;;;;;;;6.56;46.64;101744.21;108091;1288;21984;-65
2023/02/16 05:44:28;;;;;;;8.50;2.80;;;;;;;6.60;46.52;101747.45;108090;1288;21991;-64
2023/02/16 05:46:54;;;;;;;8.90;3.10;;;;;;;6.63;46.50;101749.44;108104;1288;22004;-65
2023/02/16 05:49:19;;;;;;;7.70;3.30;;;;;;;6.66;46.51;101751.10;108107;1287;22004;-64
2023/02/16 05:51:45;;;;;;;7.50;2.70;;;;;;;6.68;46.72;101749.06;108056;1285;21999;-65
2023/02/16 05:54:16;;;;;;;9.10;3.10;;;;;;;6.74;46.44;101753.92;108128;1286;21988;-64
2023/02/16 05:56:45;;;;;;;8.40;3.90;;;;;;;6.74;46.61;101756.17;108192;1286;21992;-64
2023/02/16 05:59:11;;;;;;;11.20;6.00;;;;;;;6.77;46.81;101752.26;108134;1286;22008;-64
2023/02/16 06:01:39;;;;;;;10.30;5.50;;;;;;;6.79;47.11;101753.70;108194;1286;22045;-64
2023/02/16 06:04:14;;;;;;;7.40;3.50;;;;;;;6.82;46.95;101752.55;108135;1286;22032;-64
2023/02/16 06:06:40;;;;;;;6.10;2.90;;;;;;;6.85;46.84;101753.32;108070;1286;21977;-64
2023/02/16 06:09:07;;;;;;;6.40;2.90;;;;;;;6.87;46.68;101752.84;108171;1286;21997;-64
2023/02/16 06:11:36;;;;;;;8.40;3.20;;;;;;;6.89;46.82;101750.27;108085;1286;22000;-65
2023/02/16 06:14:13;;;;;;;6.40;3.20;;;;;;;6.91;47.07;101749.45;108112;1273;22170;-64
2023/02/16 06:16:41;;;;;;;8.30;3.40;;;;;;;6.93;46.93;101750.73;107394;1286;1002566;-64
2023/02/16 06:19:10;;;;;;;9.10;3.60;;;;;;;6.96;47.10;101754.64;108113;1284;21987;-65
2023/02/16 06:21:36;;;;;;;9.20;4.40;;;;;;;7.01;47.09;101758.23;108367;1286;22035;-64
2023/02/16 06:24:03;;;;;;;8.20;3.50;;;;;;;7.05;47.10;101760.44;108152;1286;22032;-64
2023/02/16 06:26:29;;;;;;;7.90;3.60;;;;;;;7.09;47.21;101757.57;108093;1286;22012;-64
2023/02/16 06:28:55;;;;;;;9.70;4.80;;;;;;;7.14;47.31;101755.94;108110;1282;22005;-64
2023/02/16 06:31:21;;;;;;;10.50;4.60;;;;;;;7.19;47.17;101759.03;108183;1286;21984;-64
2023/02/16 06:33:47;;;;;;;14.30;7.80;;;;;;;7.24;47.16;101763.52;108130;1280;22010;-64
2023/02/16 06:36:15;;;;;;;9.10;4.50;;;;;;;7.27;47.11;101753.98;108113;1286;21994;-64
2023/02/16 06:38:40;;;;;;;10.20;5.10;;;;;;;7.28;46.96;101750.86;108106;1286;21997;-63
2023/02/16 06:41:06;;;;;;;7.20;4.30;;;;;;;7.32;47.11;101747.27;107326;1286;1002877;-62
2023/02/16 06:43:32;;;;;;;12.40;6.30;;;;;;;7.37;47.21;101750.55;108080;1286;23644;-64
2023/02/16 06:45:57;;;;;;;9.40;4.40;;;;;;;7.45;47.12;101753.53;108123;1281;21989;-63
2023/02/16 06:48:24;;;;;;;12.30;4.90;;;;;;;7.50;47.00;101749.79;107421;1281;1002563;-63
2023/02/16 06:50:50;;;;;;;16.00;10.40;;;;;;;7.56;46.73;101747.46;107327;1286;1003199;-63
2023/02/16 06:53:15;;;;;;;14.70;10.10;;;;;;;7.62;46.75;101747.25;108050;1286;22026;-65
2023/02/16 06:55:41;;;;;;;10.70;6.10;;;;;;;7.67;46.96;101747.89;108177;1286;22021;-63
2023/02/16 06:58:11;;;;;;;10.80;4.20;;;;;;;7.75;46.91;101749.08;108062;1285;21986;-64
2023/02/16 07:00:37;;;;;;;8.50;4.00;;;;;;;7.86;47.06;101753.17;108052;1286;21987;-63
2023/02/16 07:03:02;;;;;;;7.90;3.30;;;;;;;7.98;47.17;101749.73;108071;1286;21989;-63
2023/02/16 07:05:30;;;;;;;6.60;2.70;;;;;;;8.09;46.93;101749.08;107914;1276;368197;-63
2023/02/16 07:07:55;;;;;;;8.30;4.10;;;;;;;8.16;46.72;101751.51;108034;1286;22030;-64
2023/02/16 07:10:21;;;;;;;22.20;5.10;;;;;;;8.21;46.78;101749.15;107316;1286;1003361;-63
2023/02/16 07:12:47;;;;;;;12.40;3.90;;;;;;;8.29;46.92;101746.33;107306;1286;1002477;-62
2023/02/16 07:15:14;;;;;;;15.10;3.80;;;;;;;8.39;47.03;101747.05;108119;1286;21995;-63
2023/02/16 07:17:41;;;;;;;10.50;4.20;;;;;;;8.46;46.60;101754.02;108088;1283;22465;-64
2023/02/16 07:20:07;;;;;;;7.00;3.80;;;;;;;8.40;46.72;101753.52;108070;1286;22000;-64
2023/02/16 07:22:33;;;;;;;11.00;4.40;;;;;;;8.45;46.86;101752.75;108011;1286;21988;-63
2023/02/16 07:24:59;;;;;;;10.50;3.60;;;;;;;8.52;46.97;101746.44;108039;1286;22049;-64
2023/02/16 07:27:25;;;;;;;8.90;4.00;;;;;;;8.62;47.12;101748.18;108043;1286;22030;-64
2023/02/16 07:29:51;;;;;;;7.00;3.30;;;;;;;8.74;47.09;101739.13;108048;1286;21989;-64
2023/02/16 07:32:17;;;;;;;6.20;2.80;;;;;;;8.85;47.02;101739.48;108042;1286;22000;-65
2023/02/16 07:34:42;;;;;;;11.70;3.10;;;;;;;8.96;47.20;101748.05;108064;1286;21995;-64
2023/02/16 07:37:08;;;;;;;5.80;3.30;;;;;;;9.08;47.04;101753.50;108139;1286;21989;-65
2023/02/16 07:39:35;;;;;;;8.70;3.80;;;;;;;9.17;47.23;101752.95;107347;1286;1002993;-65
2023/02/16 07:42:00;;;;;;;8.70;3.30;;;;;;;9.27;47.06;101746.98;108181;1283;22201;-66
2023/02/16 07:44:26;;;;;;;9.10;3.60;;;;;;;9.37;47.35;101749.91;108200;1282;21999;-64
2023/02/16 07:46:52;;;;;;;6.50;3.10;;;;;;;9.49;47.34;101754.83;108108;1286;22001;-65
2023/02/16 07:49:17;;;;;;;7.80;3.50;;;;;;;9.57;47.00;101751.42;108278;1286;21999;-64
2023/02/16 07:51:43;;;;;;;8.00;3.70;;;;;;;9.62;46.83;101748.33;108139;1286;21982;-64
2023/02/16 07:54:09;;;;;;;7.80;3.60;;;;;;;9.71;46.86;101744.08;108057;1286;22029;-64
2023/02/16 07:56:35;;;;;;;6.70;3.40;;;;;;;9.82;47.07;101740.89;108065;1286;21990;-64
2023/02/16 07:59:01;;;;;;;7.30;3.30;;;;;;;9.96;47.18;101733.87;108101;1286;21991;-63
2023/02/16 08:01:28;;;;;;;7.00;3.50;;;;;;;10.15;47.33;101730.22;108033;1286;21985;-64
2023/02/16 08:03:54;;;;;;;6.90;3.20;;;;;;;10.31;47.13;101729.70;107445;1286;1002458;-65
2023/02/16 08:06:21;;;;;;;6.80;3.20;;;;;;;10.44;47.16;101727.23;108082;1286;21989;-64
2023/02/16 08:08:47;;;;;;;6.30;2.90;;;;;;;10.61;47.13;101721.95;108185;1286;21994;-65
2023/02/16 08:11:19;;;;;;;5.60;2.90;;;;;;;10.79;46.51;101725.62;108265;1286;21995;-64
2023/02/16 08:13:45;;;;;;;7.20;2.80;;;;;;;10.89;46.06;101725.34;108358;1283;22000;-63
2023/02/16 08:16:22;;;;;;;5.90;3.00;;;;;;;10.93;46.18;101722.92;108290;1286;22002;-63
2023/02/16 08:18:51;;;;;;;6.00;2.90;;;;;;;11.01;46.06;101722.98;108121;1283;22088;-63
2023/02/16 08:21:18;;;;;;;9.80;3.00;;;;;;;11.08;46.30;101723.38;108052;1283;21993;-64
2023/02/16 08:24:05;;;;;;;6.90;3.30;;;;;;;11.24;46.24;101722.26;108086;1286;22033;-63
2023/02/16 08:26:36;;;;;;;6.80;3.00;;;;;;;11.42;46.45;101726.23;108235;1286;22059;-64
2023/02/16 08:29:02;;;;;;;;;;;;;;;11.58;46.30;101729.66;108141;1286;21982;-64
2023/02/16 08:31:28;;;;;;;6.40;3.50;;;;;;;11.67;46.01;101726.36;108142;1286;21997;-65
2023/02/16 08:33:55;;;;;;;5.10;3.00;;;;;;;11.72;45.77;101728.32;108226;1274;21998;-64
2023/02/16 08:36:23;;;;;;;9.20;5.60;;;;;;;11.77;45.29;101722.70;107480;1286;1002630;-64
2023/02/16 08:38:50;;;;;;;9.50;4.40;;;;;;;11.79;45.39;101719.91;107561;1286;1004147;-64
2023/02/16 08:41:17;;;;;;;7.60;4.30;;;;;;;11.88;45.70;101722.93;108219;1286;22000;-64
2023/02/16 08:43:42;;;;;;;6.60;3.40;;;;;;;12.04;46.09;101724.77;108098;1286;21999;-63
2023/02/16 08:46:09;;;;;;;6.90;3.40;;;;;;;12.22;45.97;101725.88;108044;1286;21990;-65
2023/02/16 08:48:36;;;;;;;6.50;3.20;;;;;;;12.38;45.73;101727.14;108093;1286;22784;-65
2023/02/16 08:51:02;;;;;;;8.00;3.70;;;;;;;12.50;45.23;101723.99;108115;1286;22004;-63
2023/02/16 08:53:33;;;;;;;;;;;;;;;12.54;44.89;101719.79;108168;1286;21972;-64
2023/02/16 08:56:02;;;;;;;5.30;3.20;;;;;;;12.59;45.02;101718.55;108075;1283;21990;-64
2023/02/16 08:58:29;;;;;;;7.60;3.70;;;;;;;12.67;45.24;101719.43;108049;1286;21996;-64
2023/02/16 09:00:55;;;;;;;7.30;3.90;;;;;;;12.70;44.81;101723.67;108044;1286;22450;-64
2023/02/16 09:03:21;;;;;;;9.70;5.00;;;;;;;12.67;43.86;101724.90;108052;1286;21988;-64
2023/02/16 09:05:50;;;;;;;52.50;27.50;;;;;;;12.55;44.08;101725.23;108107;1286;21997;-64
2023/02/16 09:08:16;;;;;;;14.40;8.30;;;;;;;12.48;43.49;101728.39;108119;1286;21997;-64
2023/02/16 09:10:42;;;;;;;13.90;6.00;;;;;;;12.39;43.31;101728.91;108051;1286;22064;-64
2023/02/16 09:13:14;;;;;;;8.10;4.00;;;;;;;12.25;43.02;101729.58;108047;1286;21986;-64
2023/02/16 09:15:42;;;;;;;9.60;5.20;;;;;;;12.11;42.99;101724.27;108036;1286;22022;-63
2023/02/16 09:18:08;;;;;;;9.20;5.90;;;;;;;11.99;42.52;101717.52;108069;1286;21987;-65
2023/02/16 09:20:37;;;;;;;22.50;12.90;;;;;;;11.86;42.86;101720.80;108088;1286;22966;-64
2023/02/16 09:23:04;;;;;;;181.10;54.30;;;;;;;11.83;43.27;101721.51;108168;1286;21992;-65
2023/02/16 09:25:35;;;;;;;52.90;15.20;;;;;;;11.84;43.20;101721.34;108248;1286;23295;-65
2023/02/16 09:28:02;;;;;;;34.00;12.30;;;;;;;11.82;43.24;101721.50;108157;1276;22763;-67
2023/02/16 09:30:28;;;;;;;10.80;4.50;;;;;;;11.76;42.33;101722.89;107345;1284;1002874;-66
2023/02/16 09:32:54;;;;;;;8.10;3.80;;;;;;;11.61;42.14;101719.99;108157;1286;22002;-67
2023/02/16 09:35:24;;;;;;;6.60;4.20;;;;;;;11.48;42.16;101719.59;108069;1286;21998;-66
2023/02/16 09:37:50;;;;;;;;;;;;;;;11.41;42.28;101721.84;108248;1286;21979;-66
2023/02/16 09:40:16;;;;;;;6.70;3.50;;;;;;;11.31;41.75;101721.61;108046;1286;21989;-66
2023/02/16 09:42:45;;;;;;;36.40;14.50;;;;;;;11.23;42.16;101723.30;108117;1286;21991;-67
2023/02/16 09:45:13;;;;;;;38.20;14.30;;;;;;;11.18;41.95;101719.94;108171;1286;22000;-67
2023/02/16 09:47:42;;;;;;;23.10;9.80;;;;;;;11.16;42.15;101719.92;108257;1286;22028;-66
2023/02/16 09:50:13;;;;;;;11.60;4.50;;;;;;;11.18;42.13;101720.46;107364;1283;1003143;-66
2023/02/16 09:52:48;;;;;;;12.10;5.50;;;;;;;11.19;42.40;101717.13;108063;1283;21994;-65
2023/02/16 09:55:16;;;;;;;6.20;3.30;;;;;;;11.19;42.04;101719.23;107477;1286;1002078;-66
2023/02/16 09:57:45;;;;;;;7.40;4.30;;;;;;;11.16;41.71;101717.81;108174;1286;22777;-67
2023/02/16 10:00:32;;;;;;;9.80;4.60;;;;;;;11.12;41.86;101719.19;108102;1286;21985;-63
2023/02/16 10:03:12;;;;;;;10.90;6.00;;;;;;;11.18;42.42;101718.52;108338;1283;21991;-64
2023/02/16 10:05:46;;;;;;;7.30;4.50;;;;;;;11.18;42.07;101717.65;108106;1286;22827;-64
2023/02/16 10:08:23;;;;;;;8.20;4.40;;;;;;;11.15;41.90;101716.75;108151;1286;21989;-64
2023/02/16 10:10:57;;;;;;;7.60;4.00;;;;;;;11.14;41.69;101713.05;108047;1286;21990;-67
2023/02/16 10:13:34;;;;;;;8.30;4.50;;;;;;;11.17;41.98;101708.86;108083;1286;23769;-64
2023/02/16 10:16:01;;;;;;;23.40;16.50;;;;;;;11.20;41.93;101705.55;108124;1286;22008;-64
2023/02/16 10:18:32;;;;;;;23.60;16.10;;;;;;;11.19;41.43;101705.53;108010;1286;22450;-66
2023/02/16 10:21:01;;;;;;;14.40;10.50;;;;;;;11.15;41.32;101701.30;107343;1286;1002972;-65
2023/02/16 10:23:39;;;;;;;7.40;4.60;;;;;;;11.14;41.37;101696.91;108107;1286;23721;-66
2023/02/16 10:26:11;;;;;;;8.60;4.20;;;;;;;11.13;41.33;101694.08;108122;1286;21997;-66
2023/02/16 10:28:49;;;;;;;8.50;4.00;;;;;;;11.17;41.35;101691.64;108163;1282;21997;-66
2023/02/16 10:31:18;;;;;;;10.50;6.10;;;;;;;11.18;41.15;101693.77;108174;1286;21995;-64
2023/02/16 10:33:45;;;;;;;9.00;4.10;;;;;;;11.20;41.28;101688.50;108130;1273;22004;-65
2023/02/16 10:36:21;;;;;;;6.30;3.70;;;;;;;11.21;41.16;101686.92;108147;1286;22001;-65
2023/02/16 10:38:56;;;;;;;12.00;3.50;;;;;;;11.24;41.31;101685.89;107333;1286;1003114;-65
2023/02/16 10:41:34;;;;;;;9.60;4.50;;;;;;;11.32;41.23;101676.95;108066;1286;21998;-65
2023/02/16 10:44:19;;;;;;;6.80;3.20;;;;;;;11.41;40.97;101677.71;107459;1286;1002270;-65
2023/02/16 10:46:46;;;;;;;6.70;3.70;;;;;;;11.50;41.08;101676.88;108051;1286;22460;-66
2023/02/16 10:49:13;;;;;;;7.40;3.10;;;;;;;11.62;41.39;101674.13;108832;1286;21983;-65
2023/02/16 10:51:41;;;;;;;7.90;3.60;;;;;;;11.74;41.34;101668.72;108120;1286;21983;-65
2023/02/16 10:54:11;;;;;;;9.10;3.00;;;;;;;11.83;41.16;101669.80;108135;1286;22080;-65
2023/02/16 10:56:42;;;;;;;6.00;3.40;;;;;;;11.95;40.79;101665.61;108307;1286;23121;-65
2023/02/16 10:59:20;;;;;;;7.50;3.60;;;;;;;12.01;39.96;101663.36;108064;1273;21995;-65
2023/02/16 11:01:48;;;;;;;8.60;4.10;;;;;;;12.10;40.60;101663.40;108158;1288;21992;-66
2023/02/16 11:04:40;;;;;;;8.00;4.10;;;;;;;12.16;39.99;101661.83;108159;1287;21987;-65
2023/02/16 11:07:08;;;;;;;8.00;4.00;;;;;;;12.14;39.81;101654.25;108096;1288;22027;-66
2023/02/16 11:09:34;;;;;;;7.00;3.80;;;;;;;12.16;39.85;101648.79;108080;1274;21990;-64
2023/02/16 11:12:02;;;;;;;6.20;3.30;;;;;;;12.21;39.91;101647.05;107416;1273;1002452;-64
2023/02/16 11:14:29;;;;;;;7.10;3.40;;;;;;;12.23;39.64;101647.05;108138;1286;23084;-66
2023/02/16 11:17:03;;;;;;;7.80;3.50;;;;;;;12.14;38.59;101645.11;108129;1286;23634;-66
2023/02/16 11:19:31;;;;;;;7.10;3.90;;;;;;;12.05;38.74;101640.68;108129;1286;22005;-64
2023/02/16 11:22:01;;;;;;;7.10;3.40;;;;;;;12.07;38.25;101643.69;108011;1288;21995;-64
2023/02/16 11:24:36;;;;;;;7.30;3.50;;;;;;;12.08;38.13;101638.59;108137;1287;22028;-64
2023/02/16 11:27:05;;;;;;;5.60;3.10;;;;;;;12.00;38.15;101631.33;108153;1288;22000;-65
2023/02/16 11:29:32;;;;;;;5.40;2.80;;;;;;;12.03;38.37;101632.42;108189;1286;21993;-65
2023/02/16 11:31:57;;;;;;;5.90;2.90;;;;;;;12.09;38.21;101634.17;108127;1288;23721;-66
2023/02/16 11:34:38;;;;;;;5.90;2.90;;;;;;;12.15;38.45;101633.48;108157;1288;22316;-65
2023/02/16 11:37:23;;;;;;;9.40;4.00;;;;;;;12.19;38.28;101632.09;107998;1288;21996;-65
2023/02/16 11:39:57;;;;;;;12.20;4.10;;;;;;;12.17;37.57;101627.85;108097;1287;21998;-64
2023/02/16 11:42:35;;;;;;;6.80;3.50;;;;;;;12.16;37.91;101624.33;108126;1288;21998;-64
2023/02/16 11:45:04;;;;;;;5.00;2.90;;;;;;;12.08;37.38;101620.81;107973;1288;21990;-64
2023/02/16 11:47:34;;;;;;;7.90;3.30;;;;;;;12.07;37.64;101618.00;108127;1287;21993;-65
2023/02/16 11:50:18;;;;;;;;;;;;;;;12.14;37.22;101617.30;108174;1286;22000;-65
2023/02/16 11:53:14;;;;;;;6.40;3.40;;;;;;;12.21;37.92;101612.55;108111;1288;23619;-65
2023/02/16 11:55:45;;;;;;;6.20;3.20;;;;;;;12.33;36.98;101606.41;107245;1287;1004242;-64
2023/02/16 11:58:20;;;;;;;5.20;3.00;;;;;;;12.44;37.60;101599.53;108124;1286;22012;-64
2023/02/16 12:01:20;;;;;;;5.70;2.90;;;;;;;12.59;38.11;101593.89;108275;1286;21989;-64
2023/02/16 12:04:23;;;;;;;6.20;3.50;;;;;;;12.88;37.45;101590.13;108117;1286;22312;-65
2023/02/16 12:07:15;;;;;;;8.30;4.80;;;;;;;13.10;36.44;101580.91;108129;1286;21986;-64
2023/02/16 12:09:50;;;;;;;11.00;5.60;;;;;;;13.40;37.30;101577.28;108115;1286;21993;-64
2023/02/16 12:12:35;;;;;;;8.40;4.40;;;;;;;13.64;37.05;101573.29;108019;1288;21993;-65
2023/02/16 12:15:22;;;;;;;9.60;5.50;;;;;;;13.85;36.56;101565.73;108100;1286;23712;-65